Time;durP1;ratioP1;P1;durP2;ratioP2;P2;SDS_P1;SDS_P2;PMS_P1;PMS_P2;Temp;Humidity;BMP_temperature;BMP_pressure;BME280_temperature;BME280_humidity;BME280_pressure;Samples;Min_cycle;Max_cycle;Signal;HPM_P1;HPM_P2
2023/03/05 00:01:17;;;;;;;11.02;2.05;;;6.00;99.90;;;;;;5113454;28;20023;-68
2023/03/05 00:03:43;;;;;;;;;;;5.90;99.90;;;;;;5104451;28;20081;-71
2023/03/05 00:06:09;;;;;;;7.57;1.70;;;5.90;99.90;;;;;;5091819;28;19912;-72
2023/03/05 00:08:36;;;;;;;15.38;3.40;;;5.80;99.90;;;;;;5091922;28;20024;-72
2023/03/05 00:11:05;;;;;;;8.50;1.83;;;5.70;99.90;;;;;;5093105;28;20027;-71
2023/03/05 00:13:31;;;;;;;8.43;2.10;;;5.70;99.90;;;;;;5094498;28;20032;-72
2023/03/05 00:15:56;;;;;;;8.77;1.95;;;5.70;99.90;;;;;;5092076;28;20060;-69
2023/03/05 00:18:22;;;;;;;11.50;2.42;;;5.70;99.90;;;;;;5107269;28;20063;-70
2023/03/05 00:20:48;;;;;;;11.68;2.38;;;5.70;99.90;;;;;;5093821;28;20540;-71
2023/03/05 00:23:14;;;;;;;7.25;2.55;;;5.60;99.90;;;;;;5084046;28;20031;-71
2023/03/05 00:25:40;;;;;;;10.88;2.20;;;5.60;99.90;;;;;;5103270;28;20020;-70
2023/03/05 00:28:06;;;;;;;16.75;5.28;;;5.60;99.90;;;;;;5104996;28;20118;-68
2023/03/05 00:30:33;;;;;;;8.60;2.85;;;5.70;99.90;;;;;;5097443;28;20024;-72
2023/03/05 00:32:59;;;;;;;11.07;2.45;;;5.70;99.90;;;;;;5092168;28;20161;-71
2023/03/05 00:35:25;;;;;;;14.43;2.85;;;5.70;99.90;;;;;;5099779;28;20054;-69
2023/03/05 00:37:51;;;;;;;13.43;2.33;;;5.70;99.90;;;;;;5101969;28;20056;-70
2023/03/05 00:40:17;;;;;;;14.40;2.65;;;5.70;99.90;;;;;;5076600;28;20417;-69
2023/03/05 00:42:43;;;;;;;11.02;2.72;;;5.80;99.90;;;;;;5110620;28;20028;-70
2023/03/05 00:45:09;;;;;;;11.60;2.88;;;5.80;99.90;;;;;;5098171;28;20085;-67
2023/03/05 00:47:34;;;;;;;16.80;3.72;;;5.90;99.90;;;;;;5105332;28;20394;-67
2023/03/05 00:50:00;;;;;;;11.52;2.10;;;5.90;99.90;;;;;;5098718;28;20028;-67
2023/03/05 00:52:26;;;;;;;10.85;2.15;;;5.90;99.90;;;;;;5108329;28;20032;-67
2023/03/05 00:54:52;;;;;;;11.48;2.40;;;5.80;99.90;;;;;;5095711;28;20020;-67
2023/03/05 00:57:17;;;;;;;8.52;2.05;;;5.80;99.90;;;;;;5092950;28;20501;-67
2023/03/05 00:59:43;;;;;;;11.95;1.60;;;5.80;99.90;;;;;;5092616;28;20506;-67
2023/03/05 01:02:08;;;;;;;5.40;1.70;;;5.70;99.90;;;;;;5099301;28;20031;-68
2023/03/05 01:04:34;;;;;;;3.75;1.05;;;5.70;99.90;;;;;;5093179;28;20110;-67
2023/03/05 01:07:00;;;;;;;7.95;1.38;;;5.60;99.90;;;;;;5095485;28;20024;-67
2023/03/05 01:09:26;;;;;;;12.32;1.40;;;5.60;99.90;;;;;;5103547;28;20482;-67
2023/03/05 01:11:51;;;;;;;6.10;1.38;;;5.60;99.90;;;;;;5104518;28;20386;-69
2023/03/05 01:14:18;;;;;;;6.00;1.30;;;5.60;99.90;;;;;;5093436;28;20042;-68
2023/03/05 01:16:44;;;;;;;7.05;1.48;;;5.60;99.90;;;;;;5093238;28;20042;-69
2023/03/05 01:19:11;;;;;;;6.82;1.40;;;5.60;99.90;;;;;;5099849;28;20069;-67
2023/03/05 01:21:37;;;;;;;4.72;1.27;;;5.50;99.90;;;;;;5096280;28;20028;-67
2023/03/05 01:24:03;;;;;;;5.10;1.27;;;5.50;99.90;;;;;;5092972;28;20537;-68
2023/03/05 01:26:28;;;;;;;6.78;1.20;;;5.50;99.90;;;;;;5091804;28;20054;-68
2023/03/05 01:28:54;;;;;;;6.00;1.75;;;5.40;99.90;;;;;;5092891;28;20048;-68
2023/03/05 01:31:20;;;;;;;9.27;1.48;;;5.30;99.90;;;;;;5092766;28;20020;-68
2023/03/05 01:33:46;;;;;;;4.68;1.40;;;5.30;99.90;;;;;;5092657;28;20020;-67
2023/03/05 01:36:15;;;;;;;7.80;1.98;;;5.20;99.90;;;;;;5092770;28;20384;-69
2023/03/05 01:38:41;;;;;;;3.72;0.95;;;5.20;99.90;;;;;;5074634;28;20024;-67
2023/03/05 01:41:08;;;;;;;10.30;1.88;;;5.10;99.90;;;;;;5092785;28;20026;-67
2023/03/05 01:43:35;;;;;;;6.70;1.50;;;5.10;99.90;;;;;;5092712;28;20028;-67
2023/03/05 01:46:15;;;;;;;11.70;1.90;;;5.10;99.90;;;;;;5092465;28;20070;-66
2023/03/05 01:48:48;;;;;;;5.53;1.48;;;5.10;99.90;;;;;;5092491;28;20032;-68
2023/03/05 01:51:15;;;;;;;11.10;2.55;;;5.00;99.90;;;;;;5073319;28;20452;-68
2023/03/05 01:53:41;;;;;;;10.88;1.77;;;5.10;99.90;;;;;;5092295;28;20031;-69
2023/03/05 01:56:08;;;;;;;11.40;2.30;;;5.00;99.90;;;;;;5092362;28;20024;-68
2023/03/05 01:58:33;;;;;;;12.95;2.72;;;5.00;99.90;;;;;;5091594;28;20020;-67
2023/03/05 02:01:00;;;;;;;7.45;2.25;;;5.10;99.90;;;;;;5092147;28;20519;-69
2023/03/05 02:03:26;;;;;;;7.68;2.20;;;5.10;99.90;;;;;;5091971;28;20020;-68
2023/03/05 02:05:52;;;;;;;8.75;2.60;;;5.10;99.90;;;;;;5091994;28;20494;-70
2023/03/05 02:08:20;;;;;;;8.65;2.20;;;5.10;99.90;;;;;;5091938;28;20036;-66
2023/03/05 02:10:55;;;;;;;12.25;2.53;;;5.10;99.90;;;;;;5091967;28;20120;-69
2023/03/05 02:13:27;;;;;;;11.68;2.17;;;5.20;99.90;;;;;;5091114;28;20028;-66
2023/03/05 02:15:54;;;;;;;13.38;2.63;;;5.20;99.90;;;;;;5091955;28;20164;-68
2023/03/05 02:18:21;;;;;;;10.13;2.67;;;5.20;99.90;;;;;;5091839;28;20043;-69
2023/03/05 02:20:58;;;;;;;7.43;1.60;;;5.30;99.90;;;;;;5089749;28;20051;-67
2023/03/05 02:23:28;;;;;;;11.55;2.60;;;5.30;99.90;;;;;;5086768;28;20024;-66
2023/03/05 02:25:54;;;;;;;5.57;1.90;;;5.40;99.90;;;;;;5091673;28;20024;-67
2023/03/05 02:28:38;;;;;;;10.55;2.75;;;5.40;99.90;;;;;;5073031;28;20030;-68
2023/03/05 02:31:14;;;;;;;6.65;1.67;;;5.40;99.90;;;;;;5091283;28;20028;-67
2023/03/05 02:33:40;;;;;;;10.10;1.85;;;5.40;99.90;;;;;;5091011;28;20039;-66
2023/03/05 02:36:06;;;;;;;8.40;2.13;;;5.40;99.90;;;;;;5092133;28;20055;-69
2023/03/05 02:38:32;;;;;;;7.68;1.25;;;5.50;99.90;;;;;;5092803;28;20467;-66
2023/03/05 02:40:58;;;;;;;8.63;1.27;;;5.50;99.90;;;;;;5095412;28;20032;-67
2023/03/05 02:43:24;;;;;;;7.70;1.70;;;5.50;99.90;;;;;;5094042;28;20499;-66
2023/03/05 02:45:49;;;;;;;8.38;2.03;;;5.50;99.90;;;;;;5095554;28;20062;-68
2023/03/05 02:48:15;;;;;;;5.68;1.40;;;5.50;99.90;;;;;;5095390;28;20048;-66
2023/03/05 02:50:41;;;;;;;3.85;1.00;;;5.50;99.90;;;;;;5095150;28;20352;-67
2023/03/05 02:53:07;;;;;;;3.50;1.33;;;5.50;99.90;;;;;;5095601;28;20517;-69
2023/03/05 02:55:33;;;;;;;2.97;0.90;;;5.50;99.90;;;;;;5094860;28;20028;-67
2023/03/05 02:57:58;;;;;;;6.35;1.23;;;5.40;99.90;;;;;;5095066;28;20032;-67
2023/03/05 03:00:25;;;;;;;2.58;0.90;;;5.40;99.90;;;;;;5076922;28;20100;-68
2023/03/05 03:02:50;;;;;;;2.53;0.82;;;5.30;99.90;;;;;;5094829;28;20020;-68
2023/03/05 03:05:16;;;;;;;5.53;1.05;;;5.30;99.90;;;;;;5095336;28;20383;-67
2023/03/05 03:07:42;;;;;;;1.98;0.75;;;5.20;99.90;;;;;;5094503;28;20488;-67
2023/03/05 03:10:08;;;;;;;4.70;1.10;;;5.20;99.90;;;;;;5094301;28;20040;-67
2023/03/05 03:12:41;;;;;;;12.80;2.58;;;5.20;99.90;;;;;;5094918;28;20116;-66
2023/03/05 03:15:08;;;;;;;1.70;1.10;;;5.20;99.90;;;;;;5094057;28;20036;-67
2023/03/05 03:17:35;;;;;;;12.43;2.95;;;5.20;99.90;;;;;;5076716;28;20123;-67
2023/03/05 03:20:02;;;;;;;10.80;3.10;;;5.20;99.90;;;;;;5094974;28;20035;-67
2023/03/05 03:22:28;;;;;;;4.72;1.55;;;5.20;99.90;;;;;;5094355;28;20084;-67
2023/03/05 03:24:55;;;;;;;10.48;2.55;;;5.30;99.90;;;;;;5095050;28;20036;-67
2023/03/05 03:27:21;;;;;;;3.53;1.00;;;5.20;99.90;;;;;;5095051;28;20039;-66
2023/03/05 03:29:46;;;;;;;5.55;1.90;;;5.30;99.90;;;;;;5094570;28;20133;-67
2023/03/05 03:32:12;;;;;;;10.30;1.75;;;5.30;99.90;;;;;;5095112;28;20060;-67
2023/03/05 03:34:38;;;;;;;12.68;3.85;;;5.40;99.90;;;;;;5095242;28;20035;-68
2023/03/05 03:37:03;;;;;;;8.80;2.55;;;5.40;99.90;;;;;;5094260;28;20028;-68
2023/03/05 03:39:29;;;;;;;6.53;1.67;;;5.40;99.90;;;;;;5094763;28;20463;-67
2023/03/05 03:41:55;;;;;;;11.95;2.63;;;5.30;99.90;;;;;;5094064;28;20016;-67
2023/03/05 03:44:21;;;;;;;14.23;3.35;;;5.40;99.90;;;;;;5094247;28;20430;-67
2023/03/05 03:46:48;;;;;;;3.40;1.20;;;5.40;99.90;;;;;;5076420;28;20474;-68
2023/03/05 03:49:22;;;;;;;4.70;1.05;;;5.40;99.90;;;;;;5094041;28;20031;-67
2023/03/05 03:51:49;;;;;;;13.90;4.30;;;5.30;99.90;;;;;;5093541;28;20036;-67
2023/03/05 03:54:16;;;;;;;5.13;1.88;;;5.40;99.90;;;;;;5094753;28;20460;-67
2023/03/05 03:56:42;;;;;;;10.77;1.70;;;5.40;99.90;;;;;;5093689;28;20173;-67
2023/03/05 03:59:08;;;;;;;8.25;2.78;;;5.40;99.90;;;;;;5094259;28;20101;-66
2023/03/05 04:01:34;;;;;;;11.65;2.88;;;5.40;99.90;;;;;;5094195;28;20028;-67
2023/03/05 04:03:59;;;;;;;7.70;2.28;;;5.40;99.90;;;;;;5094342;28;20028;-67
2023/03/05 04:06:25;;;;;;;7.72;1.52;;;5.30;99.90;;;;;;5093173;28;20025;-67
2023/03/05 04:08:51;;;;;;;3.50;1.02;;;5.30;99.90;;;;;;5092931;28;20039;-68
2023/03/05 04:11:18;;;;;;;5.20;2.00;;;5.30;99.90;;;;;;5093557;28;20031;-67
2023/03/05 04:13:44;;;;;;;6.13;1.27;;;5.30;99.90;;;;;;5092961;28;20012;-67
2023/03/05 04:16:10;;;;;;;9.32;2.35;;;5.20;99.90;;;;;;5094111;28;20492;-67
2023/03/05 04:18:36;;;;;;;7.38;2.10;;;5.20;99.90;;;;;;5093748;28;20115;-67
2023/03/05 04:21:02;;;;;;;9.30;3.15;;;5.30;99.90;;;;;;5092666;28;20036;-67
2023/03/05 04:23:28;;;;;;;9.75;3.60;;;5.30;99.90;;;;;;5093545;28;20031;-68
2023/03/05 04:25:53;;;;;;;13.52;3.90;;;5.30;99.90;;;;;;5093927;28;20028;-69
2023/03/05 04:28:19;;;;;;;9.32;2.22;;;5.30;99.90;;;;;;5075289;28;20490;-66
2023/03/05 04:30:44;;;;;;;12.93;3.95;;;5.30;99.90;;;;;;5093035;28;20035;-66
2023/03/05 04:33:10;;;;;;;12.30;3.50;;;5.30;99.90;;;;;;5091521;28;20032;-67
2023/03/05 04:35:36;;;;;;;11.38;2.92;;;5.30;99.90;;;;;;5090873;28;20028;-68
2023/03/05 04:38:01;;;;;;;7.20;2.00;;;5.30;99.90;;;;;;5083501;28;20033;-67
2023/03/05 04:40:27;;;;;;;6.68;2.08;;;5.30;99.90;;;;;;5073093;28;20071;-66
2023/03/05 04:42:52;;;;;;;7.95;2.30;;;5.30;99.90;;;;;;5093321;28;20395;-68
2023/03/05 04:45:18;;;;;;;5.70;1.75;;;5.20;99.90;;;;;;5093007;28;20073;-68
2023/03/05 04:47:44;;;;;;;9.18;3.03;;;5.20;99.90;;;;;;5093035;28;20035;-68
2023/03/05 04:50:11;;;;;;;12.75;3.42;;;5.20;99.90;;;;;;5093233;28;20064;-67
2023/03/05 04:52:44;;;;;;;5.80;1.90;;;5.30;99.90;;;;;;5090760;28;20053;-67
2023/03/05 04:55:11;;;;;;;10.65;2.88;;;5.30;99.90;;;;;;5091624;28;20024;-67
2023/03/05 04:57:37;;;;;;;13.82;3.58;;;5.30;99.90;;;;;;5092386;28;20050;-66
2023/03/05 05:00:05;;;;;;;6.40;1.52;;;5.30;99.90;;;;;;5091379;28;20074;-67
2023/03/05 05:02:32;;;;;;;11.93;3.78;;;5.20;99.90;;;;;;5090934;28;20020;-68
2023/03/05 05:04:57;;;;;;;10.25;2.78;;;5.30;99.90;;;;;;5092137;28;20024;-67
2023/03/05 05:07:23;;;;;;;6.57;1.92;;;5.30;99.90;;;;;;5091864;28;20036;-69
2023/03/05 05:09:48;;;;;;;12.50;3.55;;;5.30;99.90;;;;;;5092063;28;20111;-67
2023/03/05 05:12:14;;;;;;;10.05;3.08;;;5.30;99.90;;;;;;5072496;28;20376;-66
2023/03/05 05:14:40;;;;;;;10.35;2.67;;;5.20;99.90;;;;;;5073535;28;20361;-68
2023/03/05 05:17:05;;;;;;;7.85;1.85;;;5.20;99.90;;;;;;5091491;28;20357;-66
2023/03/05 05:19:34;;;;;;;6.20;1.60;;;5.20;99.90;;;;;;5090515;28;20848;-67
2023/03/05 05:22:00;;;;;;;6.43;2.15;;;5.10;99.90;;;;;;5092957;28;20145;-67
2023/03/05 05:24:26;;;;;;;10.40;3.28;;;5.10;99.90;;;;;;5093350;28;20024;-66
2023/03/05 05:26:54;;;;;;;4.95;1.80;;;5.10;99.90;;;;;;5092884;28;20050;-68
2023/03/05 05:29:20;;;;;;;6.00;1.80;;;5.20;99.90;;;;;;5092920;28;20453;-70
2023/03/05 05:31:46;;;;;;;5.80;2.38;;;5.20;99.90;;;;;;5092560;28;20032;-68
2023/03/05 05:34:11;;;;;;;3.83;1.58;;;5.20;99.90;;;;;;5093216;28;20327;-68
2023/03/05 05:36:37;;;;;;;5.90;1.73;;;5.20;99.90;;;;;;5092679;28;20032;-67
2023/03/05 05:39:03;;;;;;;3.88;1.45;;;5.20;99.90;;;;;;5092985;28;20127;-67
2023/03/05 05:41:29;;;;;;;8.05;2.78;;;5.30;99.90;;;;;;5092094;28;20043;-67
2023/03/05 05:43:54;;;;;;;2.80;1.00;;;5.30;99.90;;;;;;5092451;28;20028;-68
2023/03/05 05:46:21;;;;;;;5.15;1.48;;;5.30;99.90;;;;;;5092330;28;20032;-67
2023/03/05 05:48:47;;;;;;;12.25;4.45;;;5.30;99.90;;;;;;5093068;28;20060;-68
2023/03/05 05:51:19;;;;;;;4.80;1.65;;;5.30;99.90;;;;;;5092358;28;20064;-68
2023/03/05 05:53:45;;;;;;;13.43;2.67;;;5.30;99.90;;;;;;5092439;28;20042;-67
2023/03/05 05:56:12;;;;;;;9.10;2.20;;;5.30;99.90;;;;;;5092805;28;20468;-66
2023/03/05 05:58:39;;;;;;;5.53;1.75;;;5.30;99.90;;;;;;5092745;28;20039;-66
2023/03/05 06:01:27;;;;;;;7.93;2.30;;;5.30;99.90;;;;;;5091891;28;20055;-66
2023/03/05 06:03:53;;;;;;;11.65;2.63;;;5.30;99.90;;;;;;5074022;28;20360;-67
2023/03/05 06:06:21;;;;;;;7.70;2.55;;;5.20;99.90;;;;;;5092404;28;20102;-68
2023/03/05 06:08:48;;;;;;;7.85;2.88;;;5.10;99.90;;;;;;5092411;28;20028;-66
2023/03/05 06:11:14;;;;;;;12.10;3.08;;;5.10;99.90;;;;;;5092001;28;20036;-66
2023/03/05 06:13:40;;;;;;;9.05;2.83;;;5.10;99.90;;;;;;5092172;28;20032;-67
2023/03/05 06:16:10;;;;;;;5.60;2.08;;;5.10;99.90;;;;;;5091867;28;20023;-66
2023/03/05 06:18:36;;;;;;;9.88;3.00;;;5.10;99.90;;;;;;5092301;28;20032;-68
2023/03/05 06:21:05;;;;;;;6.22;1.98;;;5.10;99.90;;;;;;5091657;28;20027;-67
2023/03/05 06:23:31;;;;;;;10.98;3.08;;;5.10;99.90;;;;;;5091871;28;20039;-69
2023/03/05 06:26:02;;;;;;;7.40;2.13;;;5.20;99.90;;;;;;5092104;28;20133;-66
2023/03/05 06:28:29;;;;;;;5.43;1.30;;;5.10;99.90;;;;;;5092301;28;20123;-67
2023/03/05 06:31:06;;;;;;;4.97;1.95;;;5.20;99.90;;;;;;5092244;28;20059;-67
2023/03/05 06:33:33;;;;;;;5.45;1.58;;;5.10;99.90;;;;;;5091792;28;20495;-67
2023/03/05 06:35:59;;;;;;;7.13;1.75;;;5.10;99.90;;;;;;5091937;28;20054;-67
2023/03/05 06:38:24;;;;;;;4.80;1.40;;;5.10;99.90;;;;;;5097873;28;20031;-68
2023/03/05 06:40:51;;;;;;;6.20;1.77;;;5.20;99.90;;;;;;5111043;28;20031;-70
2023/03/05 06:43:16;;;;;;;4.45;1.55;;;5.20;99.90;;;;;;5106199;28;20028;-69
2023/03/05 06:45:43;;;;;;;4.82;1.50;;;5.30;99.90;;;;;;5091391;28;20093;-68
2023/03/05 06:48:08;;;;;;;4.72;1.65;;;5.30;99.90;;;;;;5091547;28;20524;-69
2023/03/05 06:50:38;;;;;;;9.30;2.58;;;5.30;99.90;;;;;;5090752;28;20024;-70
2023/03/05 06:53:04;;;;;;;6.18;1.80;;;5.40;99.90;;;;;;5091179;28;20554;-69
2023/03/05 06:55:30;;;;;;;5.85;2.10;;;5.40;99.90;;;;;;5092271;28;20103;-68
2023/03/05 06:57:56;;;;;;;3.78;1.48;;;5.40;99.90;;;;;;5073632;28;20376;-68
2023/03/05 07:00:23;;;;;;;10.98;2.97;;;5.50;99.90;;;;;;5092628;28;20032;-68
2023/03/05 07:02:48;;;;;;;6.05;1.25;;;5.50;99.90;;;;;;5091906;28;20035;-68
2023/03/05 07:05:14;;;;;;;6.65;2.05;;;5.50;99.90;;;;;;5091810;28;20028;-67
2023/03/05 07:07:39;;;;;;;2.92;1.63;;;5.60;99.90;;;;;;5091161;28;20032;-69
2023/03/05 07:10:08;;;;;;;4.70;1.77;;;5.60;99.90;;;;;;5091779;28;20066;-68
2023/03/05 07:12:34;;;;;;;8.10;2.45;;;5.70;99.90;;;;;;5091588;28;20028;-67
2023/03/05 07:15:00;;;;;;;4.68;2.03;;;5.70;99.90;;;;;;5091715;28;20035;-69
2023/03/05 07:17:26;;;;;;;8.40;3.33;;;5.70;99.90;;;;;;5091209;28;20036;-68
2023/03/05 07:19:52;;;;;;;9.77;2.65;;;5.80;99.90;;;;;;5092203;28;20487;-68
2023/03/05 07:22:17;;;;;;;10.13;1.55;;;5.80;99.90;;;;;;5090978;28;20028;-68
2023/03/05 07:24:43;;;;;;;6.20;1.40;;;5.70;99.90;;;;;;5092752;28;20030;-67
2023/03/05 07:27:09;;;;;;;8.18;1.27;;;5.60;99.90;;;;;;5095296;28;20422;-69
2023/03/05 07:29:35;;;;;;;7.18;1.98;;;5.50;99.90;;;;;;5095250;28;20079;-69
2023/03/05 07:32:00;;;;;;;4.65;1.10;;;5.40;99.90;;;;;;5077247;28;20028;-69
2023/03/05 07:34:26;;;;;;;4.60;1.90;;;5.40;99.90;;;;;;5094793;28;20081;-68
2023/03/05 07:36:52;;;;;;;9.20;3.22;;;5.40;99.90;;;;;;5094767;28;20446;-69
2023/03/05 07:39:18;;;;;;;7.40;1.52;;;5.40;99.90;;;;;;5095249;28;20435;-68
2023/03/05 07:41:48;;;;;;;2.78;1.23;;;5.40;99.90;;;;;;5095239;28;20361;-67
2023/03/05 07:44:14;;;;;;;12.27;3.67;;;5.40;99.90;;;;;;5094272;28;20030;-68
2023/03/05 07:46:40;;;;;;;2.67;1.00;;;5.40;99.90;;;;;;5094509;28;20395;-67
2023/03/05 07:49:06;;;;;;;5.30;2.25;;;5.50;99.90;;;;;;5095176;28;20126;-68
2023/03/05 07:51:31;;;;;;;6.25;1.98;;;5.60;99.90;;;;;;5075065;28;20524;-69
2023/03/05 07:53:58;;;;;;;6.35;1.95;;;5.80;99.90;;;;;;5094399;28;20052;-67
2023/03/05 07:56:34;;;;;;;8.65;3.05;;;5.90;99.90;;;;;;5094297;28;20107;-68
2023/03/05 07:59:01;;;;;;;10.35;2.85;;;6.10;99.90;;;;;;5094510;28;20114;-68
2023/03/05 08:01:28;;;;;;;6.25;2.05;;;6.40;99.90;;;;;;5094587;28;20089;-66
2023/03/05 08:03:54;;;;;;;8.30;2.75;;;6.50;99.90;;;;;;5093727;28;20456;-67
2023/03/05 08:06:19;;;;;;;12.13;3.72;;;6.80;99.90;;;;;;5093868;28;20103;-69
2023/03/05 08:08:46;;;;;;;9.63;3.10;;;7.00;99.90;;;;;;5093338;28;20168;-67
2023/03/05 08:11:13;;;;;;;9.00;2.30;;;7.20;99.90;;;;;;5094012;28;20085;-67
2023/03/05 08:13:40;;;;;;;7.47;2.60;;;7.40;99.90;;;;;;5093668;28;20081;-68
2023/03/05 08:16:17;;;;;;;7.05;2.63;;;7.50;99.90;;;;;;5093564;28;20032;-69
2023/03/05 08:18:43;;;;;;;10.13;2.95;;;7.60;99.90;;;;;;5094460;28;20468;-70
2023/03/05 08:21:28;;;;;;;11.73;3.85;;;7.70;99.90;;;;;;5092442;28;20404;-69
2023/03/05 08:23:55;;;;;;;13.35;4.63;;;7.80;99.90;;;;;;5093745;28;20035;-69
2023/03/05 08:26:22;;;;;;;10.32;2.65;;;7.90;99.90;;;;;;5093961;28;20476;-69
2023/03/05 08:28:49;;;;;;;7.10;1.95;;;8.10;99.90;;;;;;5093347;28;20063;-70
2023/03/05 08:31:18;;;;;;;5.07;2.03;;;8.20;99.90;;;;;;5094175;28;20067;-69
2023/03/05 08:33:44;;;;;;;13.13;4.50;;;8.30;99.90;;;;;;5093824;28;20052;-69
2023/03/05 08:36:09;;;;;;;16.15;5.70;;;8.30;99.90;;;;;;5092923;28;20128;-69
2023/03/05 08:38:35;;;;;;;11.73;4.07;;;8.40;99.90;;;;;;5095958;28;20035;-70
2023/03/05 08:41:02;;;;;;;14.45;4.68;;;8.50;99.90;;;;;;5092318;28;20085;-70
2023/03/05 08:43:29;;;;;;;11.55;3.40;;;8.60;99.90;;;;;;5093185;28;20460;-71
2023/03/05 08:45:55;;;;;;;7.47;2.55;;;8.70;99.90;;;;;;5092766;28;20099;-69
2023/03/05 08:48:20;;;;;;;6.18;1.70;;;8.80;99.90;;;;;;5093748;28;20539;-71
2023/03/05 08:50:46;;;;;;;7.45;2.17;;;8.80;99.90;;;;;;5093096;28;20032;-68
2023/03/05 08:53:12;;;;;;;8.40;2.30;;;8.80;99.90;;;;;;5093010;28;20032;-69
2023/03/05 08:55:37;;;;;;;8.82;1.38;;;8.80;99.90;;;;;;5093302;28;20043;-70
2023/03/05 08:58:03;;;;;;;8.43;2.78;;;8.70;99.90;;;;;;5093460;28;20133;-71
2023/03/05 09:00:29;;;;;;;13.30;4.22;;;8.60;99.90;;;;;;5093129;28;20024;-70
2023/03/05 09:02:54;;;;;;;10.65;3.88;;;8.50;99.90;;;;;;5092896;28;20085;-69
2023/03/05 09:05:20;;;;;;;3.80;0.90;;;8.50;99.90;;;;;;5091314;28;20442;-69
2023/03/05 09:07:46;;;;;;;6.95;2.25;;;8.50;99.90;;;;;;5091409;28;20498;-69
2023/03/05 09:10:13;;;;;;;7.30;2.30;;;8.40;99.90;;;;;;5090827;28;20112;-69
2023/03/05 09:12:39;;;;;;;9.23;2.22;;;8.30;99.90;;;;;;5091205;28;20464;-71
2023/03/05 09:15:07;;;;;;;7.15;2.20;;;8.20;99.90;;;;;;5092085;28;20031;-70
2023/03/05 09:17:33;;;;;;;5.40;1.55;;;8.10;99.90;;;;;;5092030;28;20101;-69
2023/03/05 09:19:59;;;;;;;5.70;2.03;;;8.10;99.90;;;;;;5092140;28;20421;-70
2023/03/05 09:22:25;;;;;;;7.82;2.15;;;8.10;99.90;;;;;;5093018;28;20131;-68
2023/03/05 09:24:51;;;;;;;6.68;1.67;;;8.10;99.90;;;;;;5092472;28;20107;-68
2023/03/05 09:27:16;;;;;;;9.90;1.50;;;8.10;99.90;;;;;;5092005;28;20074;-70
2023/03/05 09:29:43;;;;;;;6.60;1.67;;;8.10;99.90;;;;;;5092527;28;20139;-70
2023/03/05 09:32:09;;;;;;;8.57;1.90;;;8.20;99.90;;;;;;5092163;28;20111;-71
2023/03/05 09:34:34;;;;;;;5.63;1.52;;;8.20;99.90;;;;;;5091861;28;20103;-69
2023/03/05 09:37:00;;;;;;;6.85;1.25;;;8.30;99.90;;;;;;5092298;28;20040;-70
2023/03/05 09:39:26;;;;;;;7.57;1.73;;;8.50;99.90;;;;;;5092522;28;20024;-69
2023/03/05 09:41:54;;;;;;;6.13;1.30;;;8.60;99.90;;;;;;5092388;28;20356;-71
2023/03/05 09:44:42;;;;;;;6.28;1.70;;;8.70;99.90;;;;;;5092327;28;20499;-71
2023/03/05 09:47:27;;;;;;;5.82;1.67;;;8.80;99.90;;;;;;5091510;28;20111;-70
2023/03/05 09:50:18;;;;;;;8.55;2.00;;;8.90;99.90;;;;;;5092193;28;20480;-71
2023/03/05 09:52:56;;;;;;;6.43;1.70;;;9.00;99.90;;;;;;5091913;28;20046;-70
2023/03/05 09:55:26;;;;;;;9.88;2.55;;;9.10;99.90;;;;;;5072650;28;20411;-70
2023/03/05 09:57:56;;;;;;;5.00;1.75;;;9.20;99.90;;;;;;5092389;28;20431;-68
2023/03/05 10:00:48;;;;;;;5.57;1.55;;;9.20;99.90;;;;;;5092422;28;20028;-71
2023/03/05 10:03:14;;;;;;;5.00;1.60;;;9.40;99.90;;;;;;5074101;28;20471;-69
2023/03/05 10:05:49;;;;;;;5.68;1.70;;;9.60;99.90;;;;;;5092601;28;20057;-70
2023/03/05 10:08:19;;;;;;;3.05;1.40;;;9.90;99.90;;;;;;5092095;28;20467;-72
2023/03/05 10:10:52;;;;;;;5.70;1.77;;;10.30;99.90;;;;;;5091920;28;20024;-69
2023/03/05 10:13:36;;;;;;;5.90;1.60;;;10.60;99.90;;;;;;5091793;28;20491;-69
2023/03/05 10:16:31;;;;;;;5.35;1.27;;;11.00;99.90;;;;;;5074813;28;20047;-71
2023/03/05 10:19:14;;;;;;;6.20;1.77;;;11.70;99.90;;;;;;5092104;28;20035;-70
2023/03/05 10:21:58;;;;;;;5.20;0.90;;;12.20;99.90;;;;;;5091722;28;20115;-69
2023/03/05 10:24:55;;;;;;;4.00;1.08;;;12.70;99.90;;;;;;5093516;28;20451;-71
2023/03/05 10:27:43;;;;;;;6.03;1.40;;;13.30;99.90;;;;;;5100338;28;20382;-71
2023/03/05 10:30:37;;;;;;;2.88;1.42;;;13.80;99.90;;;;;;5112446;28;20059;-69
2023/03/05 10:33:23;;;;;;;4.93;1.23;;;14.20;99.90;;;;;;5072097;28;20029;-69
2023/03/05 10:36:23;;;;;;;4.03;1.17;;;14.50;99.90;;;;;;5086495;28;20093;-72
2023/03/05 10:39:06;;;;;;;7.28;1.20;;;14.80;99.90;;;;;;5091791;28;20032;-70
2023/03/05 10:41:42;;;;;;;2.72;0.77;;;15.00;99.80;;;;;;5112347;28;20035;-70
2023/03/05 10:44:20;;;;;;;2.08;0.77;;;15.00;97.50;;;;;;5105386;28;20069;-70
2023/03/05 10:46:47;;;;;;;3.55;0.90;;;14.70;98.40;;;;;;5092072;28;20040;-70
2023/03/05 10:49:26;;;;;;;1.30;0.82;;;14.40;98.00;;;;;;5091373;28;20051;-70
2023/03/05 10:52:15;;;;;;;5.05;1.20;;;14.00;99.20;;;;;;5089389;28;20028;-70
2023/03/05 10:54:41;;;;;;;4.30;1.20;;;13.70;99.70;;;;;;5090846;28;20167;-68
2023/03/05 10:57:18;;;;;;;5.75;1.00;;;13.50;99.90;;;;;;5098896;28;20020;-71
2023/03/05 10:59:51;;;;;;;2.65;0.70;;;13.20;99.70;;;;;;5113180;28;20469;-70
2023/03/05 11:02:19;;;;;;;3.65;0.88;;;12.90;99.90;;;;;;5107392;28;20039;-69
2023/03/05 11:04:48;;;;;;;3.33;1.08;;;12.60;99.90;;;;;;5095116;28;20028;-69
2023/03/05 11:07:14;;;;;;;3.67;1.08;;;12.30;99.90;;;;;;5094814;28;20126;-68
2023/03/05 11:09:40;;;;;;;2.67;0.93;;;12.10;99.90;;;;;;5096193;28;20110;-71
2023/03/05 11:12:15;;;;;;;5.28;1.10;;;11.90;99.90;;;;;;5095960;28;20020;-68
2023/03/05 11:15:03;;;;;;;3.60;0.88;;;11.80;99.90;;;;;;5095847;28;20107;-72
2023/03/05 11:17:49;;;;;;;2.85;0.90;;;11.80;99.90;;;;;;5094641;28;20020;-71
2023/03/05 11:20:31;;;;;;;3.47;0.90;;;11.90;99.90;;;;;;5095189;28;20067;-69
2023/03/05 11:23:02;;;;;;;;;;;12.10;99.90;;;;;;5094963;28;20043;-70
2023/03/05 11:25:28;;;;;;;1.92;0.88;;;12.20;99.90;;;;;;5094459;28;19908;-70
2023/03/05 11:27:56;;;;;;;2.13;0.75;;;12.60;99.90;;;;;;5095368;28;20044;-71
2023/03/05 11:30:26;;;;;;;1.05;0.93;;;12.90;99.90;;;;;;5094642;28;20529;-68
2023/03/05 11:33:18;;;;;;;3.28;0.38;;;13.00;99.90;;;;;;5115244;28;20028;-71
2023/03/05 11:35:43;;;;;;;3.88;0.88;;;13.10;99.50;;;;;;5115579;28;20024;-71
2023/03/05 11:38:29;;;;;;;5.72;1.23;;;13.20;98.80;;;;;;5095554;28;20098;-69
2023/03/05 11:40:56;;;;;;;5.95;1.50;;;13.10;99.40;;;;;;5094379;28;20040;-71
2023/03/05 11:43:24;;;;;;;8.18;0.82;;;13.00;99.90;;;;;;5095440;28;20099;-69
2023/03/05 11:45:53;;;;;;;2.30;0.80;;;13.00;99.90;;;;;;5095003;28;20028;-69
2023/03/05 11:48:34;;;;;;;3.92;1.30;;;13.20;99.90;;;;;;5094860;28;20223;-70
2023/03/05 11:51:06;;;;;;;4.13;0.70;;;13.60;99.90;;;;;;5094395;28;20023;-70
2023/03/05 11:53:35;;;;;;;3.33;1.92;;;14.00;99.40;;;;;;5094662;28;20032;-69
2023/03/05 11:56:19;;;;;;;4.68;1.67;;;14.30;99.60;;;;;;5074387;28;20451;-70
2023/03/05 11:59:00;;;;;;;3.47;1.20;;;14.30;99.20;;;;;;5074681;28;20024;-70
2023/03/05 12:01:30;;;;;;;4.43;1.50;;;14.10;98.80;;;;;;5078321;28;20047;-69
2023/03/05 12:03:56;;;;;;;2.67;1.08;;;14.00;99.10;;;;;;5092521;28;20380;-69
2023/03/05 12:06:50;;;;;;;9.80;3.75;;;13.80;98.60;;;;;;5094425;28;20024;-69
2023/03/05 12:09:41;;;;;;;2.53;1.38;;;13.70;98.60;;;;;;5094652;28;20058;-69
2023/03/05 12:12:27;;;;;;;8.50;2.58;;;13.80;98.70;;;;;;5094818;28;20028;-70
2023/03/05 12:15:23;;;;;;;6.65;1.77;;;14.10;98.70;;;;;;5094569;28;20080;-69
2023/03/05 12:18:09;;;;;;;2.83;0.60;;;14.60;98.20;;;;;;5094159;28;20089;-70
2023/03/05 12:20:52;;;;;;;2.95;1.08;;;15.00;96.70;;;;;;5094659;28;20066;-70
2023/03/05 12:23:20;;;;;;;10.00;4.25;;;15.40;96.60;;;;;;5094096;28;20051;-69
2023/03/05 12:25:58;;;;;;;4.60;1.88;;;15.50;96.50;;;;;;5093958;28;20031;-69
2023/03/05 12:28:35;;;;;;;6.45;2.10;;;15.50;96.00;;;;;;5093656;28;20036;-71
2023/03/05 12:31:05;;;;;;;9.00;3.10;;;15.40;96.40;;;;;;5093928;28;20027;-70
2023/03/05 12:33:35;;;;;;;9.45;3.13;;;15.40;96.60;;;;;;5094294;28;20521;-70
2023/03/05 12:36:19;;;;;;;5.43;1.98;;;15.50;96.40;;;;;;5094254;28;20459;-69
2023/03/05 12:38:52;;;;;;;14.48;4.40;;;15.50;95.70;;;;;;5093822;28;20028;-70
2023/03/05 12:41:24;;;;;;;16.08;5.95;;;15.40;95.40;;;;;;5092639;28;20845;-69
2023/03/05 12:44:04;;;;;;;12.10;4.20;;;15.40;95.40;;;;;;5093304;28;20030;-69
2023/03/05 12:46:37;;;;;;;3.97;2.00;;;15.50;95.50;;;;;;5093423;28;20027;-69
2023/03/05 12:49:17;;;;;;;5.75;2.25;;;15.80;95.70;;;;;;5094055;28;20027;-70
2023/03/05 12:51:48;;;;;;;3.22;1.67;;;16.10;95.20;;;;;;5087451;28;20024;-69
2023/03/05 12:54:37;;;;;;;9.10;3.20;;;16.40;94.70;;;;;;5087650;28;20106;-69
2023/03/05 12:57:25;;;;;;;4.63;1.75;;;16.50;94.20;;;;;;5093364;28;20019;-71
2023/03/05 12:59:50;;;;;;;7.35;2.47;;;16.70;93.70;;;;;;5073133;28;20035;-71
2023/03/05 13:02:31;;;;;;;3.78;0.98;;;16.90;94.40;;;;;;5112036;28;20383;-71
2023/03/05 13:05:01;;;;;;;6.50;2.60;;;17.40;93.60;;;;;;5113988;28;20030;-68